sensor_id;sensor_type;location;lat;lon;timestamp;temperature;humidity
20795;DHT22;28087;-33.874;151.240;2023-01-04T00:01:41;25.00;99.90
20795;DHT22;28087;-33.874;151.240;2023-01-04T00:04:17;25.00;99.90
20795;DHT22;28087;-33.874;151.240;2023-01-04T00:06:53;25.00;99.90
20795;DHT22;28087;-33.874;151.240;2023-01-04T00:09:29;25.10;99.90
20795;DHT22;28087;-33.874;151.240;2023-01-04T00:14:44;24.80;99.90
20795;DHT22;28087;-33.874;151.240;2023-01-04T00:17:19;25.00;99.90
20795;DHT22;28087;-33.874;151.240;2023-01-04T00:19:55;25.10;99.90
20795;DHT22;28087;-33.874;151.240;2023-01-04T00:22:33;25.10;99.90
20795;DHT22;28087;-33.874;151.240;2023-01-04T00:25:10;25.20;99.90
20795;DHT22;28087;-33.874;151.240;2023-01-04T00:27:49;25.20;99.90
20795;DHT22;28087;-33.874;151.240;2023-01-04T00:30:28;25.20;99.90
20795;DHT22;28087;-33.874;151.240;2023-01-04T00:33:03;25.20;99.90
20795;DHT22;28087;-33.874;151.240;2023-01-04T00:35:39;25.30;99.90
20795;DHT22;28087;-33.874;151.240;2023-01-04T00:38:16;25.30;99.90
20795;DHT22;28087;-33.874;151.240;2023-01-04T00:59:06;25.40;99.90
20795;DHT22;28087;-33.874;151.240;2023-01-04T01:01:43;25.70;99.90
20795;DHT22;28087;-33.874;151.240;2023-01-04T01:04:20;25.70;99.90
20795;DHT22;28087;-33.874;151.240;2023-01-04T01:06:57;25.70;99.90
20795;DHT22;28087;-33.874;151.240;2023-01-04T01:09:32;25.60;99.90
20795;DHT22;28087;-33.874;151.240;2023-01-04T01:12:08;25.50;99.90
20795;DHT22;28087;-33.874;151.240;2023-01-04T01:14:46;25.30;99.90
20795;DHT22;28087;-33.874;151.240;2023-01-04T01:17:30;25.20;99.90
20795;DHT22;28087;-33.874;151.240;2023-01-04T01:20:06;25.20;99.90
20795;DHT22;28087;-33.874;151.240;2023-01-04T01:22:42;25.10;99.90
20795;DHT22;28087;-33.874;151.240;2023-01-04T01:25:18;25.20;99.90
20795;DHT22;28087;-33.874;151.240;2023-01-04T01:27:54;25.10;99.90
20795;DHT22;28087;-33.874;151.240;2023-01-04T01:30:32;25.10;99.90
20795;DHT22;28087;-33.874;151.240;2023-01-04T01:33:08;25.10;99.90
20795;DHT22;28087;-33.874;151.240;2023-01-04T01:35:44;25.00;99.90
20795;DHT22;28087;-33.874;151.240;2023-01-04T01:38:20;25.10;99.90
20795;DHT22;28087;-33.874;151.240;2023-01-04T01:40:55;25.10;99.90
20795;DHT22;28087;-33.874;151.240;2023-01-04T01:43:53;25.20;99.90
20795;DHT22;28087;-33.874;151.240;2023-01-04T01:46:35;25.20;99.90
20795;DHT22;28087;-33.874;151.240;2023-01-04T01:49:16;25.30;99.90
20795;DHT22;28087;-33.874;151.240;2023-01-04T01:51:56;25.20;99.90
20795;DHT22;28087;-33.874;151.240;2023-01-04T01:54:37;25.30;99.90
20795;DHT22;28087;-33.874;151.240;2023-01-04T01:57:17;25.40;99.90
20795;DHT22;28087;-33.874;151.240;2023-01-04T01:59:56;25.50;99.90
20795;DHT22;28087;-33.874;151.240;2023-01-04T02:02:59;25.50;99.90
20795;DHT22;28087;-33.874;151.240;2023-01-04T02:05:37;25.50;99.90
20795;DHT22;28087;-33.874;151.240;2023-01-04T02:08:13;25.40;99.90
20795;DHT22;28087;-33.874;151.240;2023-01-04T02:10:50;25.40;99.90
20795;DHT22;28087;-33.874;151.240;2023-01-04T02:13:27;25.40;99.90
20795;DHT22;28087;-33.874;151.240;2023-01-04T02:57:29;24.90;99.90
20795;DHT22;28087;-33.874;151.240;2023-01-04T03:00:29;25.00;99.90
20795;DHT22;28087;-33.874;151.240;2023-01-04T03:03:34;24.90;99.90
20795;DHT22;28087;-33.874;151.240;2023-01-04T03:06:41;24.90;99.90
20795;DHT22;28087;-33.874;151.240;2023-01-04T03:09:20;24.90;99.90
20795;DHT22;28087;-33.874;151.240;2023-01-04T03:14:54;24.80;99.90
20795;DHT22;28087;-33.874;151.240;2023-01-04T03:17:35;24.60;99.90
20795;DHT22;28087;-33.874;151.240;2023-01-04T03:20:13;24.60;99.90
20795;DHT22;28087;-33.874;151.240;2023-01-04T03:22:54;24.40;99.90
20795;DHT22;28087;-33.874;151.240;2023-01-04T03:25:52;24.40;99.90
20795;DHT22;28087;-33.874;151.240;2023-01-04T03:28:46;24.40;99.90
20795;DHT22;28087;-33.874;151.240;2023-01-04T03:31:41;24.40;99.90
20795;DHT22;28087;-33.874;151.240;2023-01-04T03:34:34;24.40;99.90
20795;DHT22;28087;-33.874;151.240;2023-01-04T03:37:31;24.30;99.90
20795;DHT22;28087;-33.874;151.240;2023-01-04T03:40:25;24.40;99.90
20795;DHT22;28087;-33.874;151.240;2023-01-04T03:43:20;24.40;99.90
20795;DHT22;28087;-33.874;151.240;2023-01-04T03:46:17;24.60;99.90
20795;DHT22;28087;-33.874;151.240;2023-01-04T03:49:15;24.50;99.90
20795;DHT22;28087;-33.874;151.240;2023-01-04T03:51:54;24.40;99.90
20795;DHT22;28087;-33.874;151.240;2023-01-04T03:54:33;24.40;99.90
20795;DHT22;28087;-33.874;151.240;2023-01-04T03:57:13;24.40;99.90
20795;DHT22;28087;-33.874;151.240;2023-01-04T03:59:51;24.50;99.90
20795;DHT22;28087;-33.874;151.240;2023-01-04T04:02:30;24.40;99.90
20795;DHT22;28087;-33.874;151.240;2023-01-04T04:05:09;24.30;99.90
20795;DHT22;28087;-33.874;151.240;2023-01-04T04:08:04;24.00;99.90
20795;DHT22;28087;-33.874;151.240;2023-01-04T04:10:57;24.10;99.90
20795;DHT22;28087;-33.874;151.240;2023-01-04T04:13:58;24.20;99.90
20795;DHT22;28087;-33.874;151.240;2023-01-04T04:16:33;24.10;99.90
20795;DHT22;28087;-33.874;151.240;2023-01-04T04:19:09;24.00;99.90
20795;DHT22;28087;-33.874;151.240;2023-01-04T04:21:45;23.90;99.90
20795;DHT22;28087;-33.874;151.240;2023-01-04T04:24:24;23.90;99.90
20795;DHT22;28087;-33.874;151.240;2023-01-04T04:26:59;23.70;99.90
20795;DHT22;28087;-33.874;151.240;2023-01-04T04:29:37;23.60;99.90
20795;DHT22;28087;-33.874;151.240;2023-01-04T04:32:13;23.50;99.90
20795;DHT22;28087;-33.874;151.240;2023-01-04T04:34:49;23.40;99.90
20795;DHT22;28087;-33.874;151.240;2023-01-04T04:37:25;23.30;99.90
20795;DHT22;28087;-33.874;151.240;2023-01-04T04:40:03;23.40;99.90
20795;DHT22;28087;-33.874;151.240;2023-01-04T04:42:39;23.30;99.90
20795;DHT22;28087;-33.874;151.240;2023-01-04T04:45:17;23.40;99.90
20795;DHT22;28087;-33.874;151.240;2023-01-04T04:47:52;23.40;99.90
20795;DHT22;28087;-33.874;151.240;2023-01-04T04:50:28;23.40;99.90
20795;DHT22;28087;-33.874;151.240;2023-01-04T04:53:04;23.40;99.90
20795;DHT22;28087;-33.874;151.240;2023-01-04T04:55:40;23.40;99.90
20795;DHT22;28087;-33.874;151.240;2023-01-04T04:58:15;23.40;99.90
20795;DHT22;28087;-33.874;151.240;2023-01-04T05:00:54;23.50;99.90
20795;DHT22;28087;-33.874;151.240;2023-01-04T05:03:30;23.60;99.90
20795;DHT22;28087;-33.874;151.240;2023-01-04T05:06:06;23.70;99.90
20795;DHT22;28087;-33.874;151.240;2023-01-04T05:08:42;23.70;99.90
20795;DHT22;28087;-33.874;151.240;2023-01-04T05:11:18;23.70;99.90
20795;DHT22;28087;-33.874;151.240;2023-01-04T05:14:14;23.70;99.90
20795;DHT22;28087;-33.874;151.240;2023-01-04T05:16:51;23.70;99.90
20795;DHT22;28087;-33.874;151.240;2023-01-04T05:19:28;23.70;99.90
20795;DHT22;28087;-33.874;151.240;2023-01-04T05:22:04;23.60;99.90
20795;DHT22;28087;-33.874;151.240;2023-01-04T05:24:40;23.60;99.90
20795;DHT22;28087;-33.874;151.240;2023-01-04T05:27:16;23.60;99.90
20795;DHT22;28087;-33.874;151.240;2023-01-04T05:29:52;23.60;99.90
20795;DHT22;28087;-33.874;151.240;2023-01-04T05:32:45;23.60;99.90
20795;DHT22;28087;-33.874;151.240;2023-01-04T05:35:21;23.60;99.90
20795;DHT22;28087;-33.874;151.240;2023-01-04T05:37:57;23.70;99.90
20795;DHT22;28087;-33.874;151.240;2023-01-04T05:40:33;23.60;99.90
20795;DHT22;28087;-33.874;151.240;2023-01-04T05:43:09;23.60;99.90
20795;DHT22;28087;-33.874;151.240;2023-01-04T05:45:48;23.40;99.90
20795;DHT22;28087;-33.874;151.240;2023-01-04T05:48:28;23.40;99.90
20795;DHT22;28087;-33.874;151.240;2023-01-04T05:51:03;23.30;99.90
20795;DHT22;28087;-33.874;151.240;2023-01-04T05:53:39;23.10;99.90
20795;DHT22;28087;-33.874;151.240;2023-01-04T05:56:15;23.10;99.90
20795;DHT22;28087;-33.874;151.240;2023-01-04T05:58:51;23.10;99.90
20795;DHT22;28087;-33.874;151.240;2023-01-04T06:01:26;23.00;99.90
20795;DHT22;28087;-33.874;151.240;2023-01-04T06:04:08;23.00;99.90
20795;DHT22;28087;-33.874;151.240;2023-01-04T06:06:44;22.90;99.90
20795;DHT22;28087;-33.874;151.240;2023-01-04T06:09:20;23.00;99.90
20795;DHT22;28087;-33.874;151.240;2023-01-04T06:11:56;22.90;99.90
20795;DHT22;28087;-33.874;151.240;2023-01-04T06:14:32;22.90;99.90
20795;DHT22;28087;-33.874;151.240;2023-01-04T06:17:08;22.80;99.90
20795;DHT22;28087;-33.874;151.240;2023-01-04T06:19:47;22.80;99.90
20795;DHT22;28087;-33.874;151.240;2023-01-04T06:22:22;22.70;99.90
20795;DHT22;28087;-33.874;151.240;2023-01-04T06:24:58;22.70;99.90
20795;DHT22;28087;-33.874;151.240;2023-01-04T06:27:34;22.60;99.90
20795;DHT22;28087;-33.874;151.240;2023-01-04T06:30:11;22.50;99.90
20795;DHT22;28087;-33.874;151.240;2023-01-04T06:32:46;22.50;99.90
20795;DHT22;28087;-33.874;151.240;2023-01-04T06:35:25;22.50;99.90
20795;DHT22;28087;-33.874;151.240;2023-01-04T06:38:00;22.50;99.90
20795;DHT22;28087;-33.874;151.240;2023-01-04T06:40:37;22.50;99.90
20795;DHT22;28087;-33.874;151.240;2023-01-04T06:43:12;22.50;99.90
20795;DHT22;28087;-33.874;151.240;2023-01-04T06:45:50;22.50;99.90
20795;DHT22;28087;-33.874;151.240;2023-01-04T06:48:26;22.40;99.90
20795;DHT22;28087;-33.874;151.240;2023-01-04T06:51:04;22.40;99.90
20795;DHT22;28087;-33.874;151.240;2023-01-04T06:53:40;22.40;99.90
20795;DHT22;28087;-33.874;151.240;2023-01-04T06:56:16;22.40;99.90
20795;DHT22;28087;-33.874;151.240;2023-01-04T06:58:52;22.30;99.90
20795;DHT22;28087;-33.874;151.240;2023-01-04T07:01:28;22.30;99.90
20795;DHT22;28087;-33.874;151.240;2023-01-04T07:04:04;22.30;99.90
20795;DHT22;28087;-33.874;151.240;2023-01-04T07:06:43;22.20;99.90
20795;DHT22;28087;-33.874;151.240;2023-01-04T07:09:19;22.10;99.90
20795;DHT22;28087;-33.874;151.240;2023-01-04T07:11:55;22.10;99.90
20795;DHT22;28087;-33.874;151.240;2023-01-04T07:14:31;22.10;99.90
20795;DHT22;28087;-33.874;151.240;2023-01-04T07:17:07;22.10;99.90
20795;DHT22;28087;-33.874;151.240;2023-01-04T07:19:42;22.00;99.90
20795;DHT22;28087;-33.874;151.240;2023-01-04T07:22:21;22.00;99.90
20795;DHT22;28087;-33.874;151.240;2023-01-04T07:24:56;22.00;99.90
20795;DHT22;28087;-33.874;151.240;2023-01-04T07:27:32;22.00;99.90
20795;DHT22;28087;-33.874;151.240;2023-01-04T07:30:09;21.90;99.90
20795;DHT22;28087;-33.874;151.240;2023-01-04T07:32:47;22.00;99.90
20795;DHT22;28087;-33.874;151.240;2023-01-04T07:35:23;21.90;99.90
20795;DHT22;28087;-33.874;151.240;2023-01-04T07:38:02;21.90;99.90
20795;DHT22;28087;-33.874;151.240;2023-01-04T07:40:42;21.90;99.90
20795;DHT22;28087;-33.874;151.240;2023-01-04T07:43:26;21.90;99.90
20795;DHT22;28087;-33.874;151.240;2023-01-04T07:46:02;21.90;99.90
20795;DHT22;28087;-33.874;151.240;2023-01-04T07:48:38;21.90;99.90
20795;DHT22;28087;-33.874;151.240;2023-01-04T07:51:14;21.80;99.90
20795;DHT22;28087;-33.874;151.240;2023-01-04T07:53:53;21.80;99.90
20795;DHT22;28087;-33.874;151.240;2023-01-04T07:56:29;21.70;99.90
20795;DHT22;28087;-33.874;151.240;2023-01-04T07:59:07;21.80;99.90
20795;DHT22;28087;-33.874;151.240;2023-01-04T08:01:44;21.80;99.90
20795;DHT22;28087;-33.874;151.240;2023-01-04T08:04:23;21.90;99.90
20795;DHT22;28087;-33.874;151.240;2023-01-04T08:07:05;21.90;99.90
20795;DHT22;28087;-33.874;151.240;2023-01-04T08:09:44;21.90;99.90
20795;DHT22;28087;-33.874;151.240;2023-01-04T08:12:19;21.90;99.90
20795;DHT22;28087;-33.874;151.240;2023-01-04T08:14:55;21.90;99.90
20795;DHT22;28087;-33.874;151.240;2023-01-04T08:17:34;21.80;99.90
20795;DHT22;28087;-33.874;151.240;2023-01-04T08:20:18;21.70;99.90
20795;DHT22;28087;-33.874;151.240;2023-01-04T08:22:55;21.80;99.90
20795;DHT22;28087;-33.874;151.240;2023-01-04T08:25:37;21.70;99.90
20795;DHT22;28087;-33.874;151.240;2023-01-04T08:28:13;21.70;99.90
20795;DHT22;28087;-33.874;151.240;2023-01-04T08:30:49;21.70;99.90
20795;DHT22;28087;-33.874;151.240;2023-01-04T08:33:25;21.70;99.90
20795;DHT22;28087;-33.874;151.240;2023-01-04T08:36:08;21.70;99.90
20795;DHT22;28087;-33.874;151.240;2023-01-04T08:38:52;21.70;99.90
20795;DHT22;28087;-33.874;151.240;2023-01-04T08:41:34;21.60;99.90
20795;DHT22;28087;-33.874;151.240;2023-01-04T08:44:41;21.60;99.90
20795;DHT22;28087;-33.874;151.240;2023-01-04T08:47:17;21.60;99.90
20795;DHT22;28087;-33.874;151.240;2023-01-04T08:49:52;21.60;99.90
20795;DHT22;28087;-33.874;151.240;2023-01-04T08:52:28;21.50;99.90
20795;DHT22;28087;-33.874;151.240;2023-01-04T08:55:05;21.50;99.90
20795;DHT22;28087;-33.874;151.240;2023-01-04T08:57:47;21.50;99.90
20795;DHT22;28087;-33.874;151.240;2023-01-04T09:00:22;21.50;99.90
20795;DHT22;28087;-33.874;151.240;2023-01-04T09:02:58;21.40;99.90
20795;DHT22;28087;-33.874;151.240;2023-01-04T09:05:36;21.40;99.90
20795;DHT22;28087;-33.874;151.240;2023-01-04T09:08:13;21.40;99.90
20795;DHT22;28087;-33.874;151.240;2023-01-04T09:10:48;21.40;99.90
20795;DHT22;28087;-33.874;151.240;2023-01-04T09:13:30;21.40;99.90
20795;DHT22;28087;-33.874;151.240;2023-01-04T09:16:09;21.50;99.90
20795;DHT22;28087;-33.874;151.240;2023-01-04T09:18:48;21.50;99.90
20795;DHT22;28087;-33.874;151.240;2023-01-04T09:21:23;21.40;99.90
20795;DHT22;28087;-33.874;151.240;2023-01-04T09:23:59;21.40;99.90
20795;DHT22;28087;-33.874;151.240;2023-01-04T09:26:36;21.30;99.90
20795;DHT22;28087;-33.874;151.240;2023-01-04T09:29:14;21.30;99.90
20795;DHT22;28087;-33.874;151.240;2023-01-04T09:31:49;21.20;99.90
20795;DHT22;28087;-33.874;151.240;2023-01-04T09:34:25;21.20;99.90
20795;DHT22;28087;-33.874;151.240;2023-01-04T09:37:01;21.20;99.90
20795;DHT22;28087;-33.874;151.240;2023-01-04T09:39:37;21.20;99.90
20795;DHT22;28087;-33.874;151.240;2023-01-04T09:42:18;21.20;99.90
20795;DHT22;28087;-33.874;151.240;2023-01-04T09:45:10;21.10;99.90
20795;DHT22;28087;-33.874;151.240;2023-01-04T09:47:57;21.10;99.90
20795;DHT22;28087;-33.874;151.240;2023-01-04T09:50:47;21.10;99.90
20795;DHT22;28087;-33.874;151.240;2023-01-04T09:53:26;21.10;99.90
20795;DHT22;28087;-33.874;151.240;2023-01-04T09:56:07;21.10;99.90
20795;DHT22;28087;-33.874;151.240;2023-01-04T09:58:44;21.10;99.90
20795;DHT22;28087;-33.874;151.240;2023-01-04T10:01:24;21.10;99.90
20795;DHT22;28087;-33.874;151.240;2023-01-04T10:04:04;21.00;99.90
20795;DHT22;28087;-33.874;151.240;2023-01-04T10:06:41;21.10;99.90
20795;DHT22;28087;-33.874;151.240;2023-01-04T10:09:21;21.10;99.90
20795;DHT22;28087;-33.874;151.240;2023-01-04T10:12:16;21.10;99.90
20795;DHT22;28087;-33.874;151.240;2023-01-04T10:15:13;21.00;99.90
20795;DHT22;28087;-33.874;151.240;2023-01-04T10:18:07;21.00;99.90
20795;DHT22;28087;-33.874;151.240;2023-01-04T10:21:15;21.00;99.90
20795;DHT22;28087;-33.874;151.240;2023-01-04T10:24:17;20.90;99.90
20795;DHT22;28087;-33.874;151.240;2023-01-04T10:27:00;21.10;99.90
20795;DHT22;28087;-33.874;151.240;2023-01-04T10:29:52;20.90;99.90
20795;DHT22;28087;-33.874;151.240;2023-01-04T10:32:36;20.90;99.90
20795;DHT22;28087;-33.874;151.240;2023-01-04T10:35:21;20.90;99.90
20795;DHT22;28087;-33.874;151.240;2023-01-04T10:37:59;20.90;99.90
20795;DHT22;28087;-33.874;151.240;2023-01-04T10:40:38;20.90;99.90
20795;DHT22;28087;-33.874;151.240;2023-01-04T10:43:26;20.90;99.90
20795;DHT22;28087;-33.874;151.240;2023-01-04T10:46:28;20.90;99.90
20795;DHT22;28087;-33.874;151.240;2023-01-04T10:49:09;20.80;99.90
20795;DHT22;28087;-33.874;151.240;2023-01-04T10:51:51;20.80;99.90
20795;DHT22;28087;-33.874;151.240;2023-01-04T10:54:35;20.80;99.90
20795;DHT22;28087;-33.874;151.240;2023-01-04T10:57:20;20.70;99.90
20795;DHT22;28087;-33.874;151.240;2023-01-04T11:00:02;20.80;99.90
20795;DHT22;28087;-33.874;151.240;2023-01-04T11:02:42;20.80;99.90
20795;DHT22;28087;-33.874;151.240;2023-01-04T11:05:23;20.70;99.90
20795;DHT22;28087;-33.874;151.240;2023-01-04T11:08:06;20.70;99.90
20795;DHT22;28087;-33.874;151.240;2023-01-04T11:10:46;20.70;99.90
20795;DHT22;28087;-33.874;151.240;2023-01-04T11:13:23;20.70;99.90
20795;DHT22;28087;-33.874;151.240;2023-01-04T11:16:02;20.60;99.90
20795;DHT22;28087;-33.874;151.240;2023-01-04T11:18:39;20.70;99.90
20795;DHT22;28087;-33.874;151.240;2023-01-04T11:21:19;20.40;99.90
20795;DHT22;28087;-33.874;151.240;2023-01-04T11:23:59;20.50;99.90
20795;DHT22;28087;-33.874;151.240;2023-01-04T11:26:57;20.50;99.90
20795;DHT22;28087;-33.874;151.240;2023-01-04T11:29:41;20.30;99.90
20795;DHT22;28087;-33.874;151.240;2023-01-04T11:32:23;20.30;99.90
20795;DHT22;28087;-33.874;151.240;2023-01-04T11:35:06;20.30;99.90
20795;DHT22;28087;-33.874;151.240;2023-01-04T11:37:43;20.30;99.90
20795;DHT22;28087;-33.874;151.240;2023-01-04T11:40:25;20.30;99.90
20795;DHT22;28087;-33.874;151.240;2023-01-04T11:43:15;20.20;99.90
20795;DHT22;28087;-33.874;151.240;2023-01-04T11:45:57;20.20;99.90
20795;DHT22;28087;-33.874;151.240;2023-01-04T11:48:37;20.20;99.90
20795;DHT22;28087;-33.874;151.240;2023-01-04T11:51:32;20.10;99.90
20795;DHT22;28087;-33.874;151.240;2023-01-04T11:54:19;20.10;99.90
20795;DHT22;28087;-33.874;151.240;2023-01-04T11:57:00;20.00;99.90
20795;DHT22;28087;-33.874;151.240;2023-01-04T11:59:42;19.90;99.90
20795;DHT22;28087;-33.874;151.240;2023-01-04T12:02:20;20.00;99.90
20795;DHT22;28087;-33.874;151.240;2023-01-04T12:05:19;20.00;99.90
20795;DHT22;28087;-33.874;151.240;2023-01-04T12:08:00;20.00;99.90
20795;DHT22;28087;-33.874;151.240;2023-01-04T12:10:36;19.90;99.90
20795;DHT22;28087;-33.874;151.240;2023-01-04T12:13:14;19.80;99.90
20795;DHT22;28087;-33.874;151.240;2023-01-04T12:15:58;19.70;99.90
20795;DHT22;28087;-33.874;151.240;2023-01-04T12:18:36;19.70;99.90
20795;DHT22;28087;-33.874;151.240;2023-01-04T12:21:18;19.70;99.90
20795;DHT22;28087;-33.874;151.240;2023-01-04T12:23:54;19.80;99.90
20795;DHT22;28087;-33.874;151.240;2023-01-04T12:26:30;19.70;99.90
20795;DHT22;28087;-33.874;151.240;2023-01-04T12:29:39;19.80;99.90
20795;DHT22;28087;-33.874;151.240;2023-01-04T12:32:38;19.70;99.90
20795;DHT22;28087;-33.874;151.240;2023-01-04T12:38:56;19.70;99.90
20795;DHT22;28087;-33.874;151.240;2023-01-04T12:45:19;19.80;99.90
20795;DHT22;28087;-33.874;151.240;2023-01-04T12:47:56;19.80;99.90
20795;DHT22;28087;-33.874;151.240;2023-01-04T12:54:04;19.80;99.90
20795;DHT22;28087;-33.874;151.240;2023-01-04T13:00:05;19.80;99.90
20795;DHT22;28087;-33.874;151.240;2023-01-04T13:02:45;19.90;99.90
20795;DHT22;28087;-33.874;151.240;2023-01-04T13:05:33;19.80;99.90
20795;DHT22;28087;-33.874;151.240;2023-01-04T13:08:27;19.90;99.90
20795;DHT22;28087;-33.874;151.240;2023-01-04T13:11:05;19.90;99.90
20795;DHT22;28087;-33.874;151.240;2023-01-04T13:13:44;19.90;99.90
20795;DHT22;28087;-33.874;151.240;2023-01-04T13:16:29;20.00;99.90
20795;DHT22;28087;-33.874;151.240;2023-01-04T13:19:15;19.90;99.90
20795;DHT22;28087;-33.874;151.240;2023-01-04T13:21:54;19.90;99.90
20795;DHT22;28087;-33.874;151.240;2023-01-04T13:24:30;19.90;99.90
20795;DHT22;28087;-33.874;151.240;2023-01-04T13:27:07;19.90;99.90
20795;DHT22;28087;-33.874;151.240;2023-01-04T13:29:44;19.90;99.90
20795;DHT22;28087;-33.874;151.240;2023-01-04T13:32:22;19.80;99.90
20795;DHT22;28087;-33.874;151.240;2023-01-04T13:35:02;19.80;99.90
20795;DHT22;28087;-33.874;151.240;2023-01-04T13:37:45;19.80;99.90
20795;DHT22;28087;-33.874;151.240;2023-01-04T13:40:23;19.90;99.90
20795;DHT22;28087;-33.874;151.240;2023-01-04T13:43:17;19.90;99.90
20795;DHT22;28087;-33.874;151.240;2023-01-04T13:46:12;20.00;99.90
20795;DHT22;28087;-33.874;151.240;2023-01-04T13:48:52;20.00;99.90
20795;DHT22;28087;-33.874;151.240;2023-01-04T13:51:31;20.10;99.90
20795;DHT22;28087;-33.874;151.240;2023-01-04T13:54:18;20.10;99.90
20795;DHT22;28087;-33.874;151.240;2023-01-04T13:57:08;20.10;99.90
20795;DHT22;28087;-33.874;151.240;2023-01-04T13:59:45;20.20;99.90
20795;DHT22;28087;-33.874;151.240;2023-01-04T14:02:21;20.10;99.90
20795;DHT22;28087;-33.874;151.240;2023-01-04T14:04:58;20.10;99.90
20795;DHT22;28087;-33.874;151.240;2023-01-04T14:07:36;20.10;99.90
20795;DHT22;28087;-33.874;151.240;2023-01-04T14:10:16;20.00;99.90
20795;DHT22;28087;-33.874;151.240;2023-01-04T14:12:53;20.10;99.90
20795;DHT22;28087;-33.874;151.240;2023-01-04T14:15:30;20.10;99.90
20795;DHT22;28087;-33.874;151.240;2023-01-04T14:18:20;20.00;99.90
20795;DHT22;28087;-33.874;151.240;2023-01-04T14:21:00;19.90;99.90
20795;DHT22;28087;-33.874;151.240;2023-01-04T14:23:37;20.00;99.90
20795;DHT22;28087;-33.874;151.240;2023-01-04T14:26:31;19.90;99.90
20795;DHT22;28087;-33.874;151.240;2023-01-04T14:29:26;20.00;99.90
20795;DHT22;28087;-33.874;151.240;2023-01-04T14:32:08;19.90;99.90
20795;DHT22;28087;-33.874;151.240;2023-01-04T14:34:43;19.90;99.90
20795;DHT22;28087;-33.874;151.240;2023-01-04T14:37:20;19.50;99.90
20795;DHT22;28087;-33.874;151.240;2023-01-04T14:39:58;19.70;99.90
20795;DHT22;28087;-33.874;151.240;2023-01-04T14:42:35;19.70;99.90
20795;DHT22;28087;-33.874;151.240;2023-01-04T14:45:13;19.70;99.90
20795;DHT22;28087;-33.874;151.240;2023-01-04T14:47:49;19.60;99.90
20795;DHT22;28087;-33.874;151.240;2023-01-04T14:50:25;19.70;99.90
20795;DHT22;28087;-33.874;151.240;2023-01-04T14:53:02;19.70;99.90
20795;DHT22;28087;-33.874;151.240;2023-01-04T14:55:39;19.70;99.90
20795;DHT22;28087;-33.874;151.240;2023-01-04T14:58:16;19.80;99.90
20795;DHT22;28087;-33.874;151.240;2023-01-04T15:00:51;19.80;99.90
20795;DHT22;28087;-33.874;151.240;2023-01-04T15:03:28;19.80;99.90
20795;DHT22;28087;-33.874;151.240;2023-01-04T15:06:04;19.60;99.90
20795;DHT22;28087;-33.874;151.240;2023-01-04T15:08:41;19.70;99.90
20795;DHT22;28087;-33.874;151.240;2023-01-04T15:11:18;19.70;99.90
20795;DHT22;28087;-33.874;151.240;2023-01-04T15:13:54;19.80;99.90
20795;DHT22;28087;-33.874;151.240;2023-01-04T15:16:30;19.80;99.90
20795;DHT22;28087;-33.874;151.240;2023-01-04T15:19:06;19.80;99.90
20795;DHT22;28087;-33.874;151.240;2023-01-04T15:21:42;19.80;99.90
20795;DHT22;28087;-33.874;151.240;2023-01-04T15:24:19;19.70;99.90
20795;DHT22;28087;-33.874;151.240;2023-01-04T15:26:56;19.80;99.90
20795;DHT22;28087;-33.874;151.240;2023-01-04T15:29:33;19.80;99.90
20795;DHT22;28087;-33.874;151.240;2023-01-04T15:32:09;19.80;99.90
20795;DHT22;28087;-33.874;151.240;2023-01-04T15:34:51;19.80;99.90
20795;DHT22;28087;-33.874;151.240;2023-01-04T15:37:27;19.80;99.90
20795;DHT22;28087;-33.874;151.240;2023-01-04T15:40:04;19.80;99.90
20795;DHT22;28087;-33.874;151.240;2023-01-04T15:42:41;19.80;99.90
20795;DHT22;28087;-33.874;151.240;2023-01-04T15:45:36;19.70;99.90
20795;DHT22;28087;-33.874;151.240;2023-01-04T15:48:11;19.80;99.90
20795;DHT22;28087;-33.874;151.240;2023-01-04T15:50:48;19.70;99.90
20795;DHT22;28087;-33.874;151.240;2023-01-04T15:53:24;19.70;99.90
20795;DHT22;28087;-33.874;151.240;2023-01-04T15:56:08;19.70;99.90
20795;DHT22;28087;-33.874;151.240;2023-01-04T15:58:50;19.70;99.90
20795;DHT22;28087;-33.874;151.240;2023-01-04T16:01:27;19.60;99.90
20795;DHT22;28087;-33.874;151.240;2023-01-04T16:04:04;19.60;99.90
20795;DHT22;28087;-33.874;151.240;2023-01-04T16:06:40;19.50;99.90
20795;DHT22;28087;-33.874;151.240;2023-01-04T16:09:16;19.50;99.90
20795;DHT22;28087;-33.874;151.240;2023-01-04T16:11:52;19.60;99.90
20795;DHT22;28087;-33.874;151.240;2023-01-04T16:14:46;19.60;99.90
20795;DHT22;28087;-33.874;151.240;2023-01-04T16:17:22;19.50;99.90
20795;DHT22;28087;-33.874;151.240;2023-01-04T16:19:58;19.60;99.90
20795;DHT22;28087;-33.874;151.240;2023-01-04T16:22:34;19.60;99.90
20795;DHT22;28087;-33.874;151.240;2023-01-04T16:25:12;19.60;99.90
20795;DHT22;28087;-33.874;151.240;2023-01-04T16:27:48;19.70;99.90
20795;DHT22;28087;-33.874;151.240;2023-01-04T16:30:32;19.70;99.90
20795;DHT22;28087;-33.874;151.240;2023-01-04T16:33:09;19.70;99.90
20795;DHT22;28087;-33.874;151.240;2023-01-04T16:35:44;19.70;99.90
20795;DHT22;28087;-33.874;151.240;2023-01-04T16:38:27;19.70;99.90
20795;DHT22;28087;-33.874;151.240;2023-01-04T16:41:04;19.70;99.90
20795;DHT22;28087;-33.874;151.240;2023-01-04T16:43:43;19.70;99.90
20795;DHT22;28087;-33.874;151.240;2023-01-04T16:46:22;19.80;99.90
20795;DHT22;28087;-33.874;151.240;2023-01-04T16:49:02;19.80;99.90
20795;DHT22;28087;-33.874;151.240;2023-01-04T16:51:39;19.70;99.90
20795;DHT22;28087;-33.874;151.240;2023-01-04T16:54:16;19.70;99.90
20795;DHT22;28087;-33.874;151.240;2023-01-04T16:56:52;19.70;99.90
20795;DHT22;28087;-33.874;151.240;2023-01-04T16:59:30;19.70;99.90
20795;DHT22;28087;-33.874;151.240;2023-01-04T17:02:10;19.60;99.90
20795;DHT22;28087;-33.874;151.240;2023-01-04T17:04:46;19.50;99.90
20795;DHT22;28087;-33.874;151.240;2023-01-04T17:07:26;19.50;99.90
20795;DHT22;28087;-33.874;151.240;2023-01-04T17:10:05;19.40;99.90
20795;DHT22;28087;-33.874;151.240;2023-01-04T17:12:41;19.40;99.90
20795;DHT22;28087;-33.874;151.240;2023-01-04T17:15:20;19.40;99.90
20795;DHT22;28087;-33.874;151.240;2023-01-04T17:18:17;19.40;99.90
20795;DHT22;28087;-33.874;151.240;2023-01-04T17:20:54;19.30;99.90
20795;DHT22;28087;-33.874;151.240;2023-01-04T17:23:52;19.30;99.90
20795;DHT22;28087;-33.874;151.240;2023-01-04T17:26:29;19.30;99.90